Peristerion, Greece
Current Conditions -  °F | °C
As of 7:50 AM on Sunday 26 Oct 2014 (Local Time) from LGEL Reporting Station
Broken Clouds Broken Clouds  
Wind Chill: 14°   Ceiling: 7000
Heat Index: 14°   Visibility: 6mi
Dew Point:   Wind: 16mph
Humidity: 72%   Direction: 340°NNW
Pressure: 30"   Gusts: NA
Location:  38.02°N, 23.7°E
Report Text: LGEL 260450Z 34014KT 9999 SCT015 BKN070 14/09 Q1016
Loading
Personal Weather Stations






























Interactive Weather Map
Tropical Storm Tracking
New forecast layout! Learn more

10-Day Weather Forecast

Advertisements
Track Severe Weather on mobile